Hlavní strana
METAR-TAF:

METAR-TAF

Letiště :

Kuvajt, Kuvajt

zeměpisná šířka: 29-13N, zeměpisná délka: 047-59E, výška: 55 m

Aktuální stav počasí

Zpráva byla vytvořena před 18 minutami, v 05:00 UTC
Severoseverozápadní vítr 17 kt
Teplota 37°C
Vlhkost vzduchu 18%
Tlak 1004 hPa
Viditelnost 10 km a více
Žádná oblačnost pod 1500 m, nevyskytují se cumulonimby.

METAR: OKBK 200500Z 34017KT CAVOK 37/09 Q1004 NOSIG

Čas: 08:18 (05:18 UTC)

Předpověď počasí

Zpráva byla vytvořena před 6 hodinami a 33 minutami, v 22:45 UTC
Předpověď platná od 20 v 00 UTC do 21 v 06 UTC
Severní vítr 12 kt s nárazy do 22 kt
Viditelnost: 7000 m
Jasno
Dočasný
od 20 v 06 UTC do 20 v 15 UTC
Viditelnost: 2000 m
zvířený prach

TAF: OKBK 192245Z 2000/2106 35012G22KT 7000 SKC TEMPO 2006/2015 2000 BLDU

Stav a předpovědi počasí z více než 4 000 letišť (zprávy METAR a TAF).

Červené a žluté tečky na mapě představují dostupné meteorologické stanice.

Když kurzor umístíte na tečku, zobrazí se název stanice.

Pak kliknutím zobrazíte stav a předpověď počasí.

Chcete-li změnit mapu, kliknutím na zelené tlačítko se znaménkem +mapu přiblížíte, kliknutím na zelené tlačítko se znaménkem – mapu oddálíte a kliknutím na zelené šipky přejdete na sousední mapy.


METAR-TAF: